Time;durP1;ratioP1;P1;durP2;ratioP2;P2;SDS_P1;SDS_P2;PMS_P1;PMS_P2;Temp;Humidity;BMP_temperature;BMP_pressure;BME280_temperature;BME280_humidity;BME280_pressure;Samples;Min_cycle;Max_cycle;Signal;HPM_P1;HPM_P2
2022/06/17 00:00:15;;;;;;;1.60;1.00;;;19.30;99.90;;;;;;4162458;28;20427;-43
2022/06/17 00:02:37;;;;;;;6.50;0.82;;;19.30;99.90;;;;;;4161997;28;20139;-45
2022/06/17 00:04:57;;;;;;;1.85;1.10;;;19.30;99.90;;;;;;4161421;28;20088;-44
2022/06/17 00:07:19;;;;;;;1.13;0.90;;;19.30;99.90;;;;;;4162011;28;20099;-46
2022/06/17 00:09:41;;;;;;;6.25;0.88;;;19.30;99.90;;;;;;4161814;28;20053;-43
2022/06/17 00:12:03;;;;;;;1.67;0.95;;;19.30;99.90;;;;;;4156933;28;20578;-42
2022/06/17 00:14:31;;;;;;;2.80;1.00;;;19.30;99.90;;;;;;4162041;28;20128;-44
2022/06/17 00:16:52;;;;;;;3.30;0.90;;;19.40;99.90;;;;;;4161402;28;20056;-44
2022/06/17 00:19:13;;;;;;;1.38;1.00;;;19.20;99.90;;;;;;4161643;28;20417;-43
2022/06/17 00:21:38;;;;;;;2.15;0.80;;;19.20;99.90;;;;;;4160898;28;20508;-44
2022/06/17 00:24:00;;;;;;;5.22;0.90;;;19.30;99.90;;;;;;4162167;28;20052;-44
2022/06/17 00:26:22;;;;;;;1.00;1.00;;;19.30;99.90;;;;;;4161701;28;20051;-44
2022/06/17 00:28:43;;;;;;;0.90;0.90;;;19.10;99.90;;;;;;4161574;28;20048;-45
2022/06/17 00:31:05;;;;;;;1.23;0.95;;;18.80;99.90;;;;;;4161846;28;20068;-43
2022/06/17 00:33:25;;;;;;;1.10;1.00;;;18.80;99.90;;;;;;4161348;28;20048;-43
2022/06/17 00:35:55;;;;;;;1.73;0.80;;;18.80;99.90;;;;;;4161358;28;20095;-44
2022/06/17 00:38:19;;;;;;;1.15;0.82;;;18.80;99.90;;;;;;4161573;28;20420;-44
2022/06/17 00:40:41;;;;;;;1.15;1.15;;;19.00;99.90;;;;;;4161246;28;20072;-44
2022/06/17 00:43:11;;;;;;;1.40;0.98;;;18.90;99.90;;;;;;4161533;28;20052;-44
2022/06/17 00:45:40;;;;;;;1.25;0.80;;;18.90;99.90;;;;;;4161567;28;20051;-44
2022/06/17 00:48:23;;;;;;;3.28;0.93;;;19.00;99.90;;;;;;4161078;28;20280;-42
2022/06/17 00:50:50;;;;;;;2.95;1.00;;;19.00;99.90;;;;;;4161605;28;20052;-43
2022/06/17 00:53:17;;;;;;;1.85;0.90;;;19.00;99.90;;;;;;4161490;28;20103;-44
2022/06/17 00:55:47;;;;;;;1.05;1.05;;;18.90;99.90;;;;;;4161537;28;20056;-44
2022/06/17 00:58:18;;;;;;;2.28;1.00;;;18.90;99.90;;;;;;4160580;28;20539;-44
2022/06/17 01:00:39;;;;;;;1.63;0.90;;;18.80;99.90;;;;;;4161369;28;20104;-44
2022/06/17 01:03:07;;;;;;;1.08;1.00;;;18.70;99.90;;;;;;4145388;28;20045;-44
2022/06/17 01:05:35;;;;;;;0.90;0.90;;;18.40;99.90;;;;;;4157435;28;20059;-44
2022/06/17 01:08:12;;;;;;;1.63;1.00;;;18.30;99.90;;;;;;4160875;28;20045;-45
2022/06/17 01:10:32;;;;;;;3.10;1.10;;;18.10;99.90;;;;;;4160966;28;20056;-43
2022/06/17 01:13:03;;;;;;;1.17;1.00;;;18.10;99.90;;;;;;4145166;28;20158;-44
2022/06/17 01:15:27;;;;;;;2.05;0.90;;;18.30;99.90;;;;;;4160690;28;20052;-43
2022/06/17 01:17:49;;;;;;;1.50;1.10;;;18.30;99.90;;;;;;4163648;28;20096;-43
2022/06/17 01:20:11;;;;;;;1.10;1.10;;;18.30;99.90;;;;;;4164783;28;20055;-43
2022/06/17 01:22:46;;;;;;;2.70;1.33;;;18.20;99.90;;;;;;4164765;28;20204;-43
2022/06/17 01:25:12;;;;;;;1.10;1.00;;;18.10;99.90;;;;;;4164337;28;20099;-44
2022/06/17 01:27:36;;;;;;;2.05;1.00;;;17.90;99.90;;;;;;4164263;28;20408;-44
2022/06/17 01:29:56;;;;;;;1.67;1.10;;;17.80;99.90;;;;;;4164193;28;20095;-42
2022/06/17 01:32:19;;;;;;;2.03;1.05;;;17.90;99.90;;;;;;4164366;28;20111;-43
2022/06/17 01:34:40;;;;;;;2.15;1.10;;;18.00;99.90;;;;;;4148330;28;20049;-43
2022/06/17 01:37:02;;;;;;;2.30;1.20;;;17.90;99.90;;;;;;4157873;28;20941;-42
2022/06/17 01:39:25;;;;;;;1.02;1.00;;;17.90;99.90;;;;;;4164194;28;20111;-43
2022/06/17 01:41:47;;;;;;;1.00;1.00;;;17.70;99.90;;;;;;4164073;28;20527;-43
2022/06/17 01:44:14;;;;;;;1.20;1.20;;;17.70;99.90;;;;;;4164126;28;20052;-43
2022/06/17 01:46:37;;;;;;;1.20;0.95;;;17.60;99.90;;;;;;4164116;28;20047;-43
2022/06/17 01:49:06;;;;;;;1.00;1.00;;;17.60;99.90;;;;;;4164159;28;20044;-44
2022/06/17 01:51:32;;;;;;;3.17;1.00;;;17.60;99.90;;;;;;4147947;28;20103;-43
2022/06/17 01:53:57;;;;;;;1.75;1.55;;;17.50;99.90;;;;;;4147834;28;20532;-45
2022/06/17 01:56:20;;;;;;;1.15;1.15;;;17.50;99.90;;;;;;4158752;28;20056;-45
2022/06/17 01:59:12;;;;;;;1.00;1.00;;;17.40;99.90;;;;;;4163945;28;20060;-42
2022/06/17 02:01:35;;;;;;;1.10;1.10;;;17.40;99.90;;;;;;4163742;28;20277;-44
2022/06/17 02:04:07;;;;;;;1.20;1.10;;;17.60;99.90;;;;;;4163659;28;20488;-43
2022/06/17 02:06:39;;;;;;;2.43;1.20;;;17.70;99.90;;;;;;4164420;28;20460;-46
2022/06/17 02:09:00;;;;;;;2.67;1.30;;;17.80;99.90;;;;;;4158103;28;20084;-43
2022/06/17 02:11:21;;;;;;;1.88;1.08;;;17.90;99.90;;;;;;4163493;28;20145;-43
2022/06/17 02:13:42;;;;;;;1.15;0.90;;;17.90;99.90;;;;;;4164226;28;20060;-43
2022/06/17 02:16:05;;;;;;;2.33;1.58;;;18.00;99.90;;;;;;4163911;28;20060;-44
2022/06/17 02:18:26;;;;;;;;;;;18.10;99.90;;;;;;4163730;28;20417;-42
2022/06/17 02:20:50;;;;;;;3.65;1.00;;;18.10;99.90;;;;;;4160948;28;19928;-43
2022/06/17 02:23:11;;;;;;;1.65;0.95;;;18.00;99.90;;;;;;4146390;28;20592;-43
2022/06/17 02:25:37;;;;;;;3.80;1.33;;;17.90;99.90;;;;;;4162420;28;20063;-42
2022/06/17 02:28:02;;;;;;;3.20;1.00;;;17.70;99.90;;;;;;4153516;28;20512;-44
2022/06/17 02:30:24;;;;;;;1.23;1.05;;;17.70;99.90;;;;;;4150126;28;20412;-43
2022/06/17 02:32:47;;;;;;;1.00;1.00;;;17.70;99.90;;;;;;4163466;28;20734;-45
2022/06/17 02:35:32;;;;;;;1.10;1.10;;;17.70;99.90;;;;;;4163380;28;20523;-43
2022/06/17 02:37:54;;;;;;;1.15;1.08;;;17.70;99.90;;;;;;4163329;28;20111;-43
2022/06/17 02:40:29;;;;;;;1.10;1.10;;;17.70;99.90;;;;;;4163186;28;20060;-43
2022/06/17 02:42:52;;;;;;;1.60;1.23;;;17.70;99.90;;;;;;4163263;28;20088;-44
2022/06/17 02:45:18;;;;;;;1.83;1.27;;;17.60;99.90;;;;;;4163161;28;20403;-43
2022/06/17 02:47:40;;;;;;;1.55;1.45;;;17.40;99.90;;;;;;4162798;28;20096;-44
2022/06/17 02:50:00;;;;;;;1.50;1.05;;;17.30;99.90;;;;;;4163169;28;20401;-42
2022/06/17 02:52:34;;;;;;;2.13;1.27;;;17.20;99.90;;;;;;4163333;28;20408;-42
2022/06/17 02:54:59;;;;;;;1.25;1.10;;;17.20;99.90;;;;;;4163323;28;20052;-43
2022/06/17 02:57:31;;;;;;;1.83;1.20;;;17.10;99.90;;;;;;4162755;28;20551;-43
2022/06/17 03:00:07;;;;;;;1.35;1.25;;;17.00;99.90;;;;;;4163047;28;20107;-44
2022/06/17 03:02:35;;;;;;;1.10;1.10;;;16.90;99.90;;;;;;4162466;28;20140;-45
2022/06/17 03:04:56;;;;;;;1.35;1.27;;;17.10;99.90;;;;;;4163249;28;20157;-43
2022/06/17 03:07:19;;;;;;;1.88;1.63;;;17.10;99.90;;;;;;4149441;28;20052;-45
2022/06/17 03:09:40;;;;;;;1.45;1.35;;;17.10;99.90;;;;;;4163053;28;20056;-43
2022/06/17 03:12:23;;;;;;;2.08;1.98;;;17.20;99.90;;;;;;4162981;28;20056;-42
2022/06/17 03:15:04;;;;;;;1.75;1.10;;;17.20;99.90;;;;;;4162467;28;20091;-43
2022/06/17 03:17:25;;;;;;;3.00;1.20;;;17.10;99.90;;;;;;4151609;28;20133;-43
2022/06/17 03:19:47;;;;;;;1.25;1.20;;;17.10;99.90;;;;;;4162833;28;20422;-43
2022/06/17 03:22:12;;;;;;;1.30;1.30;;;17.10;99.90;;;;;;4153859;28;20615;-43
2022/06/17 03:24:53;;;;;;;5.30;1.38;;;17.10;99.90;;;;;;4147608;28;20652;-43
2022/06/17 03:27:18;;;;;;;2.35;1.33;;;17.20;99.90;;;;;;4162590;28;20052;-43
2022/06/17 03:29:42;;;;;;;3.45;1.35;;;17.20;99.90;;;;;;4146410;28;20069;-43
2022/06/17 03:32:12;;;;;;;1.33;1.30;;;17.20;99.90;;;;;;4157253;28;20056;-44
2022/06/17 03:34:43;;;;;;;2.75;1.20;;;17.00;99.90;;;;;;4162795;28;20087;-45
2022/06/17 03:37:19;;;;;;;1.77;1.20;;;16.90;99.90;;;;;;4162476;28;20099;-44
2022/06/17 03:39:44;;;;;;;3.00;1.40;;;16.90;99.90;;;;;;4162221;28;20114;-45
2022/06/17 03:42:30;;;;;;;2.03;1.10;;;16.80;99.90;;;;;;4162619;28;20420;-43
2022/06/17 03:44:55;;;;;;;4.60;1.55;;;16.80;99.90;;;;;;4157679;28;20096;-42
2022/06/17 03:47:42;;;;;;;1.27;1.17;;;16.70;99.90;;;;;;4161841;28;20149;-43
2022/06/17 03:50:08;;;;;;;3.22;1.25;;;16.70;99.90;;;;;;4162435;28;20099;-44
2022/06/17 03:52:43;;;;;;;4.78;1.33;;;16.80;99.90;;;;;;4162522;28;20055;-44
2022/06/17 03:55:04;;;;;;;3.75;1.10;;;16.80;99.90;;;;;;4148167;28;20061;-42
2022/06/17 03:57:29;;;;;;;2.72;1.58;;;16.80;99.90;;;;;;4161910;28;20056;-43
2022/06/17 03:59:50;;;;;;;1.52;1.42;;;16.80;99.90;;;;;;4162121;28;20404;-43
2022/06/17 04:02:13;;;;;;;1.95;1.85;;;16.80;99.90;;;;;;4162025;28;20658;-43
2022/06/17 04:04:39;;;;;;;5.15;1.15;;;16.80;99.90;;;;;;4145963;28;20057;-43
2022/06/17 04:07:00;;;;;;;2.15;1.65;;;16.80;99.90;;;;;;4154650;28;20566;-42
2022/06/17 04:09:27;;;;;;;1.60;1.50;;;16.70;99.90;;;;;;4161710;28;20048;-43
2022/06/17 04:11:54;;;;;;;3.53;1.30;;;16.70;99.90;;;;;;4161842;28;20543;-42
2022/06/17 04:14:23;;;;;;;1.33;1.23;;;16.80;99.90;;;;;;4154434;28;20103;-43
2022/06/17 04:17:04;;;;;;;1.10;1.10;;;16.90;99.90;;;;;;4157046;28;20060;-45
2022/06/17 04:19:28;;;;;;;4.95;1.30;;;17.00;99.90;;;;;;4161993;28;20061;-43
2022/06/17 04:21:51;;;;;;;3.70;1.17;;;17.00;99.90;;;;;;4161757;28;20149;-45
2022/06/17 04:24:27;;;;;;;1.55;1.45;;;17.10;99.90;;;;;;4162031;28;20048;-44
2022/06/17 04:26:53;;;;;;;3.45;1.30;;;17.10;99.90;;;;;;4161672;28;20072;-43
2022/06/17 04:29:34;;;;;;;2.83;1.55;;;17.10;99.90;;;;;;4161645;28;20107;-44
2022/06/17 04:32:26;;;;;;;1.98;1.88;;;16.90;99.90;;;;;;4160198;28;20057;-43
2022/06/17 04:34:47;;;;;;;4.45;1.48;;;16.90;99.90;;;;;;4158514;28;20409;-43
2022/06/17 04:37:19;;;;;;;1.73;1.63;;;17.00;99.90;;;;;;4145301;28;20052;-45
2022/06/17 04:39:46;;;;;;;1.93;1.33;;;17.00;99.90;;;;;;4145453;28;20057;-44
2022/06/17 04:42:13;;;;;;;4.43;1.30;;;17.10;99.90;;;;;;4154860;28;20048;-43
2022/06/17 04:44:34;;;;;;;2.75;1.40;;;17.00;99.90;;;;;;4160104;28;20048;-45
2022/06/17 04:47:16;;;;;;;1.83;1.30;;;17.10;99.90;;;;;;4161151;28;20103;-43
2022/06/17 04:49:42;;;;;;;1.75;1.63;;;17.00;99.90;;;;;;4161704;28;20052;-43
2022/06/17 04:52:14;;;;;;;3.70;1.73;;;17.00;99.90;;;;;;4160892;28;20130;-45
2022/06/17 04:54:38;;;;;;;1.40;1.40;;;17.00;99.90;;;;;;4161567;28;20048;-44
2022/06/17 04:57:02;;;;;;;1.60;1.50;;;17.00;99.90;;;;;;4161116;28;20088;-43
2022/06/17 04:59:23;;;;;;;5.45;1.60;;;17.00;99.90;;;;;;4161676;28;20108;-44
2022/06/17 05:01:46;;;;;;;1.98;1.88;;;17.00;99.90;;;;;;4161080;28;20056;-43
2022/06/17 05:04:07;;;;;;;2.72;2.53;;;17.10;99.90;;;;;;4161251;28;20047;-46
2022/06/17 05:06:28;;;;;;;1.40;1.30;;;17.20;99.90;;;;;;4160038;28;20047;-43
2022/06/17 05:08:59;;;;;;;4.05;1.67;;;17.40;99.90;;;;;;4160556;28;20045;-43
2022/06/17 05:11:32;;;;;;;1.38;1.38;;;17.60;99.90;;;;;;4160072;28;20440;-43
2022/06/17 05:13:56;;;;;;;;;;;17.70;99.90;;;;;;4161393;28;20052;-43
2022/06/17 05:16:16;;;;;;;;;;;17.90;99.90;;;;;;4161447;28;20300;-45
2022/06/17 05:18:38;;;;;;;2.67;1.00;;;18.00;99.90;;;;;;4160703;28;19971;-45
2022/06/17 05:20:58;;;;;;;2.67;1.10;;;18.10;99.90;;;;;;4161068;28;20053;-44
2022/06/17 05:23:19;;;;;;;3.35;1.30;;;18.10;99.90;;;;;;4160830;28;20096;-45
2022/06/17 05:25:42;;;;;;;3.70;1.30;;;18.00;99.90;;;;;;4161272;28;20136;-44
2022/06/17 05:28:04;;;;;;;2.92;1.08;;;18.10;99.90;;;;;;4161157;28;20052;-45
2022/06/17 05:30:27;;;;;;;1.13;1.00;;;18.30;99.90;;;;;;4161350;28;20056;-44
2022/06/17 05:32:51;;;;;;;2.15;1.10;;;18.50;99.90;;;;;;4160752;28;20096;-45
2022/06/17 05:35:13;;;;;;;2.65;2.00;;;18.60;99.90;;;;;;4160844;28;20487;-45
2022/06/17 05:37:33;;;;;;;3.63;0.95;;;18.60;99.90;;;;;;4161321;28;20137;-46
2022/06/17 05:39:55;;;;;;;1.27;1.00;;;18.70;99.90;;;;;;4161039;28;20060;-46
2022/06/17 05:42:15;;;;;;;2.00;1.40;;;18.70;99.90;;;;;;4161014;28;20520;-44
2022/06/17 05:44:37;;;;;;;1.00;1.00;;;18.80;99.90;;;;;;4160649;28;20180;-44
2022/06/17 05:46:58;;;;;;;2.05;1.20;;;18.90;99.90;;;;;;4161442;28;20402;-48
2022/06/17 05:49:18;;;;;;;3.17;1.58;;;19.00;99.90;;;;;;4146402;28;20060;-43
2022/06/17 05:51:39;;;;;;;2.63;1.20;;;19.10;99.90;;;;;;4160711;28;20048;-45
2022/06/17 05:54:01;;;;;;;1.00;1.00;;;19.20;99.90;;;;;;4156482;28;20048;-44
2022/06/17 05:56:22;;;;;;;1.20;1.10;;;19.30;99.90;;;;;;4150986;28;20045;-46
2022/06/17 05:58:43;;;;;;;1.80;1.00;;;19.50;99.90;;;;;;4154006;28;20149;-44
2022/06/17 06:01:03;;;;;;;3.35;1.10;;;19.70;99.90;;;;;;4160255;28;20041;-45
2022/06/17 06:03:27;;;;;;;2.33;0.90;;;19.80;99.90;;;;;;4162920;28;20169;-44
2022/06/17 06:05:47;;;;;;;1.67;0.90;;;20.00;99.90;;;;;;4147603;28;20409;-44
2022/06/17 06:08:08;;;;;;;5.50;0.80;;;20.20;99.90;;;;;;4157403;28;20121;-44
2022/06/17 06:10:29;;;;;;;4.43;1.00;;;20.30;99.90;;;;;;4163740;28;20078;-45
2022/06/17 06:13:03;;;;;;;2.10;1.00;;;20.40;99.90;;;;;;4147617;28;20445;-47
2022/06/17 06:15:26;;;;;;;1.10;1.00;;;20.50;99.90;;;;;;4147668;28;20061;-45
2022/06/17 06:17:48;;;;;;;2.58;1.00;;;20.50;99.90;;;;;;4156390;28;20129;-44
2022/06/17 06:20:10;;;;;;;1.02;0.90;;;20.50;99.90;;;;;;4162429;28;20107;-44
2022/06/17 06:22:31;;;;;;;1.23;1.10;;;20.50;99.90;;;;;;4163631;28;20688;-46
2022/06/17 06:24:52;;;;;;;1.23;1.00;;;20.60;99.90;;;;;;4163686;28;20147;-43
2022/06/17 06:27:12;;;;;;;0.85;0.85;;;20.70;99.90;;;;;;4163477;28;20127;-44
2022/06/17 06:29:33;;;;;;;3.35;1.63;;;20.80;99.90;;;;;;4163624;28;20139;-46
2022/06/17 06:31:54;;;;;;;2.95;1.00;;;20.80;99.90;;;;;;4163422;28;20111;-45
2022/06/17 06:34:20;;;;;;;4.47;1.13;;;20.80;99.90;;;;;;4163355;28;20060;-46
2022/06/17 06:36:40;;;;;;;4.03;0.90;;;21.00;99.90;;;;;;4163198;28;20053;-45
2022/06/17 06:39:01;;;;;;;3.80;1.00;;;21.10;99.90;;;;;;4163570;28;20120;-45
2022/06/17 06:41:22;;;;;;;1.90;0.90;;;21.10;99.90;;;;;;4163376;28;20213;-44
2022/06/17 06:43:42;;;;;;;3.33;1.00;;;21.00;99.90;;;;;;4162856;28;20052;-45
2022/06/17 06:46:10;;;;;;;3.40;1.65;;;21.10;99.90;;;;;;4163619;28;20045;-45
2022/06/17 06:48:31;;;;;;;3.03;1.00;;;21.10;99.90;;;;;;4163230;28;20132;-45
2022/06/17 06:50:52;;;;;;;3.20;1.30;;;21.30;99.90;;;;;;4162868;28;20432;-44
2022/06/17 06:53:13;;;;;;;10.30;1.60;;;21.50;99.90;;;;;;4163148;28;20076;-45
2022/06/17 06:55:34;;;;;;;12.75;2.60;;;21.70;99.90;;;;;;4163047;28;20060;-44
2022/06/17 06:57:59;;;;;;;4.30;1.33;;;21.90;99.90;;;;;;4163390;28;20411;-45
2022/06/17 07:00:26;;;;;;;2.05;1.00;;;22.10;99.90;;;;;;4146777;28;20208;-46
2022/06/17 07:02:48;;;;;;;2.92;1.05;;;22.30;99.90;;;;;;4159845;28;20416;-45
2022/06/17 07:05:08;;;;;;;2.00;1.00;;;22.40;99.90;;;;;;4163160;28;20456;-44
2022/06/17 07:07:31;;;;;;;4.30;0.90;;;22.50;99.90;;;;;;4162790;28;20053;-45
2022/06/17 07:09:51;;;;;;;6.40;1.00;;;22.50;99.90;;;;;;4146428;28;20056;-45
2022/06/17 07:12:12;;;;;;;2.90;0.90;;;22.70;99.90;;;;;;4159203;28;20084;-45
2022/06/17 07:14:34;;;;;;;1.15;1.08;;;23.10;99.90;;;;;;4161851;28;20477;-45
2022/06/17 07:16:54;;;;;;;2.38;0.93;;;23.50;99.90;;;;;;4162429;28;20125;-45
2022/06/17 07:19:19;;;;;;;2.28;1.08;;;23.70;99.90;;;;;;4146250;28;20516;-46
2022/06/17 07:21:40;;;;;;;7.15;1.10;;;23.80;99.90;;;;;;4157857;28;20175;-44
2022/06/17 07:24:01;;;;;;;4.05;1.13;;;23.80;99.90;;;;;;4162514;28;20091;-44
2022/06/17 07:26:24;;;;;;;2.38;0.90;;;24.30;99.90;;;;;;4162594;28;20056;-45
2022/06/17 07:28:47;;;;;;;3.83;0.85;;;24.60;99.90;;;;;;4146657;28;20048;-46
2022/06/17 07:31:07;;;;;;;1.88;0.70;;;24.60;99.90;;;;;;4156565;28;20682;-44
2022/06/17 07:33:30;;;;;;;3.92;0.70;;;25.00;99.90;;;;;;4162554;28;20052;-45
2022/06/17 07:35:55;;;;;;;5.47;1.45;;;25.00;99.90;;;;;;4162572;28;20150;-43
2022/06/17 07:40:59;;;;;;;0.77;0.77;;;25.30;99.90;;;;;;4158473;28;20052;-44
2022/06/17 07:43:19;;;;;;;4.75;0.80;;;25.10;99.90;;;;;;4162280;28;20049;-45
2022/06/17 07:45:40;;;;;;;0.70;0.70;;;25.70;99.90;;;;;;4162415;28;20057;-44
2022/06/17 07:48:04;;;;;;;1.35;0.70;;;26.00;99.90;;;;;;4145718;28;20061;-44
2022/06/17 07:50:32;;;;;;;1.48;0.80;;;26.30;99.90;;;;;;4157350;28;20165;-46
2022/06/17 07:52:52;;;;;;;3.20;0.70;;;26.90;99.90;;;;;;4162227;28;20099;-44
2022/06/17 07:55:14;;;;;;;3.15;0.80;;;27.10;99.90;;;;;;4162168;28;20160;-46
2022/06/17 07:57:35;;;;;;;4.38;0.80;;;27.00;99.90;;;;;;4145650;28;20054;-45
2022/06/17 07:59:55;;;;;;;1.48;0.70;;;26.90;99.90;;;;;;4156866;28;20114;-44
2022/06/17 08:02:16;;;;;;;2.42;0.70;;;27.00;99.90;;;;;;4162485;28;20107;-44
2022/06/17 08:04:38;;;;;;;2.58;0.65;;;27.00;99.90;;;;;;4162225;28;20124;-45
2022/06/17 08:06:59;;;;;;;2.10;0.70;;;27.20;99.90;;;;;;4146525;28;20053;-44
2022/06/17 08:09:21;;;;;;;2.40;0.70;;;27.30;99.90;;;;;;4161862;28;20075;-46
2022/06/17 08:11:41;;;;;;;3.15;0.65;;;27.00;99.90;;;;;;4161732;28;20401;-45
2022/06/17 08:14:03;;;;;;;0.70;0.70;;;27.10;99.90;;;;;;4162203;28;20057;-43
2022/06/17 08:16:24;;;;;;;1.02;0.60;;;27.10;99.90;;;;;;4161382;28;20265;-45
2022/06/17 08:18:46;;;;;;;1.77;0.80;;;27.70;99.90;;;;;;4161150;28;20587;-46
2022/06/17 08:21:07;;;;;;;2.28;0.60;;;27.80;99.90;;;;;;4161741;28;20063;-45
2022/06/17 08:23:28;;;;;;;4.22;0.60;;;28.10;99.90;;;;;;4161761;28;20417;-44
2022/06/17 08:25:49;;;;;;;2.80;0.60;;;28.30;99.90;;;;;;4160729;28;20048;-45
2022/06/17 08:28:12;;;;;;;1.70;0.60;;;28.10;99.00;;;;;;4162103;28;20044;-45
2022/06/17 08:30:37;;;;;;;;;;;27.90;99.90;;;;;;4162336;28;20103;-45
2022/06/17 08:32:58;;;;;;;1.23;0.60;;;28.20;98.60;;;;;;4161462;28;20414;-45
2022/06/17 08:35:21;;;;;;;4.05;0.60;;;28.40;99.90;;;;;;4161610;28;20537;-44
2022/06/17 08:37:47;;;;;;;3.90;0.60;;;28.50;99.90;;;;;;4160467;28;20107;-46
2022/06/17 08:40:40;;;;;;;;;;;28.60;99.90;;;;;;4161850;28;20056;-46
2022/06/17 08:43:26;;;;;;;5.53;0.50;;;28.80;99.20;;;;;;4160087;28;19927;-45
2022/06/17 08:45:59;;;;;;;0.80;0.80;;;29.00;98.70;;;;;;4144058;28;20083;-44
2022/06/17 08:48:37;;;;;;;1.45;0.50;;;29.40;98.40;;;;;;4160704;28;20091;-44
2022/06/17 08:51:36;;;;;;;1.50;0.60;;;29.60;99.90;;;;;;4161403;28;20060;-45
2022/06/17 08:54:06;;;;;;;1.90;0.60;;;29.50;98.50;;;;;;4161370;28;20055;-46
2022/06/17 08:56:34;;;;;;;0.70;0.60;;;29.30;98.00;;;;;;4161331;28;20156;-44
2022/06/17 08:59:34;;;;;;;6.40;1.25;;;29.40;97.80;;;;;;4161619;28;20052;-45
2022/06/17 09:02:19;;;;;;;1.38;0.70;;;29.70;98.00;;;;;;4159454;28;20068;-44
2022/06/17 09:05:06;;;;;;;0.85;0.80;;;29.80;98.20;;;;;;4159229;28;20440;-48
2022/06/17 09:07:39;;;;;;;1.88;0.60;;;30.10;97.30;;;;;;4158837;28;20575;-45
2022/06/17 09:10:18;;;;;;;1.17;0.60;;;29.80;99.80;;;;;;4158872;28;20099;-47
2022/06/17 09:13:03;;;;;;;0.88;0.60;;;29.70;98.30;;;;;;4148542;28;20076;-46
2022/06/17 09:15:39;;;;;;;4.53;0.60;;;29.60;98.80;;;;;;4145202;28;20052;-45
2022/06/17 09:18:07;;;;;;;3.13;0.63;;;29.40;98.30;;;;;;4158641;28;20103;-45
2022/06/17 09:20:34;;;;;;;3.55;0.60;;;29.90;99.60;;;;;;4142553;28;20057;-45
2022/06/17 09:23:00;;;;;;;2.00;0.60;;;29.60;97.60;;;;;;4154225;28;20152;-45
2022/06/17 09:25:31;;;;;;;2.33;1.00;;;29.60;97.80;;;;;;4153554;28;20076;-44
2022/06/17 09:27:54;;;;;;;2.22;0.85;;;29.70;97.60;;;;;;4142686;28;20533;-46
2022/06/17 09:30:20;;;;;;;1.70;0.60;;;29.70;97.80;;;;;;4158788;28;20125;-44
2022/06/17 09:32:52;;;;;;;3.25;0.63;;;29.80;97.80;;;;;;4158820;28;20083;-46
2022/06/17 09:35:37;;;;;;;0.63;0.60;;;30.10;98.60;;;;;;4156322;28;20551;-44
2022/06/17 09:38:16;;;;;;;2.15;0.52;;;30.10;97.80;;;;;;4148439;28;20140;-45
2022/06/17 09:41:00;;;;;;;1.60;0.57;;;30.50;96.80;;;;;;4163570;28;20056;-44
2022/06/17 09:43:20;;;;;;;1.13;0.50;;;31.00;97.80;;;;;;4153538;28;20095;-45
2022/06/17 09:45:41;;;;;;;1.13;0.50;;;31.00;97.60;;;;;;4162166;28;20052;-45
2022/06/17 09:48:18;;;;;;;2.00;0.90;;;31.50;98.60;;;;;;4157724;28;20072;-44
2022/06/17 09:50:50;;;;;;;1.33;0.50;;;31.40;97.20;;;;;;4154682;28;20590;-45
2022/06/17 09:53:20;;;;;;;3.33;0.50;;;31.20;95.90;;;;;;4157725;28;20172;-44
2022/06/17 09:55:52;;;;;;;2.78;0.57;;;31.30;97.10;;;;;;4155704;28;20405;-47
2022/06/17 09:58:28;;;;;;;;;;;31.40;96.30;;;;;;4158687;28;20125;-46
2022/06/17 10:00:54;;;;;;;1.45;0.50;;;31.30;96.40;;;;;;4164126;28;19931;-45
2022/06/17 10:03:30;;;;;;;1.13;0.55;;;31.60;96.90;;;;;;4158965;28;20056;-45
2022/06/17 10:06:04;;;;;;;1.13;0.57;;;31.90;96.60;;;;;;4163705;28;20103;-45
2022/06/17 10:08:49;;;;;;;3.13;0.60;;;32.10;97.40;;;;;;4158848;28;20412;-45
2022/06/17 10:11:27;;;;;;;0.50;0.50;;;32.40;95.50;;;;;;4159200;28;20044;-46
2022/06/17 10:13:56;;;;;;;3.60;0.60;;;32.50;97.00;;;;;;4159637;28;20072;-45
2022/06/17 10:19:47;;;;;;;0.60;0.60;;;32.10;95.00;;;;;;4157318;28;20049;-46
2022/06/17 10:22:28;;;;;;;2.65;0.50;;;32.20;97.20;;;;;;4158228;28;20060;-46
2022/06/17 10:24:58;;;;;;;2.03;0.57;;;32.80;96.00;;;;;;4170733;28;20051;-45
2022/06/17 10:27:42;;;;;;;0.95;0.95;;;33.20;95.00;;;;;;4157873;28;20102;-46
2022/06/17 10:30:53;;;;;;;4.40;0.50;;;33.00;93.70;;;;;;4151481;28;20425;-46
2022/06/17 10:33:16;;;;;;;3.30;0.60;;;32.70;96.10;;;;;;4163560;28;20677;-45
2022/06/17 10:35:40;;;;;;;2.92;0.70;;;32.80;94.60;;;;;;4162579;28;20125;-45
2022/06/17 10:38:06;;;;;;;1.63;0.60;;;32.70;94.70;;;;;;4155944;28;20056;-45
2022/06/17 10:40:30;;;;;;;3.60;0.93;;;32.60;95.10;;;;;;4157064;28;20084;-45
2022/06/17 10:42:54;;;;;;;1.48;0.70;;;32.10;94.30;;;;;;4162965;28;20092;-46
2022/06/17 10:45:17;;;;;;;3.05;1.33;;;32.00;94.80;;;;;;4157532;28;20123;-46
2022/06/17 10:48:01;;;;;;;0.90;0.70;;;31.70;95.70;;;;;;4159907;28;20068;-46
2022/06/17 10:50:28;;;;;;;1.70;0.70;;;31.30;95.70;;;;;;4159245;28;20069;-45
2022/06/17 10:53:08;;;;;;;4.03;0.70;;;31.40;96.40;;;;;;4154596;28;20059;-45
2022/06/17 10:55:51;;;;;;;1.60;0.70;;;31.40;95.90;;;;;;4161687;28;20538;-46
2022/06/17 10:58:24;;;;;;;3.80;0.70;;;31.70;96.20;;;;;;4161170;28;20129;-45
2022/06/17 11:00:44;;;;;;;0.90;0.70;;;31.50;95.40;;;;;;4153748;28;20061;-47
2022/06/17 11:03:26;;;;;;;0.95;0.70;;;31.50;96.10;;;;;;4156368;28;20479;-45
2022/06/17 11:05:57;;;;;;;4.80;0.70;;;31.50;96.20;;;;;;4146151;28;20112;-45
2022/06/17 11:08:23;;;;;;;1.38;0.90;;;31.20;97.10;;;;;;4161622;28;20484;-44
2022/06/17 11:10:53;;;;;;;1.83;0.70;;;31.00;97.50;;;;;;4162378;28;20121;-46
2022/06/17 11:13:14;;;;;;;1.77;0.70;;;31.00;96.70;;;;;;4162666;28;20051;-45
2022/06/17 11:15:51;;;;;;;1.00;0.90;;;31.20;97.00;;;;;;4162769;28;20368;-46
2022/06/17 11:18:33;;;;;;;4.35;1.17;;;31.70;96.20;;;;;;4160673;28;20044;-45
2022/06/17 11:21:03;;;;;;;2.83;0.80;;;32.10;95.70;;;;;;4156676;28;20051;-44
2022/06/17 11:23:35;;;;;;;3.20;0.80;;;32.00;95.60;;;;;;4161192;28;20172;-46
2022/06/17 11:26:16;;;;;;;2.33;0.93;;;31.90;95.90;;;;;;4157827;28;20068;-45
2022/06/17 11:28:49;;;;;;;1.92;0.80;;;32.40;96.20;;;;;;4146043;28;20112;-45
2022/06/17 11:31:22;;;;;;;1.83;0.80;;;32.40;95.10;;;;;;4146380;28;20422;-45
2022/06/17 11:33:52;;;;;;;3.50;0.80;;;32.50;95.00;;;;;;4156441;28;20115;-44
2022/06/17 11:36:19;;;;;;;3.35;0.80;;;32.60;95.10;;;;;;4145929;28;20124;-48
2022/06/17 11:38:40;;;;;;;1.15;0.70;;;32.30;95.30;;;;;;4150203;28;20111;-46
2022/06/17 11:41:28;;;;;;;1.23;0.70;;;32.20;94.60;;;;;;4152266;28;20138;-44
2022/06/17 11:43:50;;;;;;;1.80;0.80;;;32.20;94.90;;;;;;4161334;28;20120;-45
2022/06/17 11:46:16;;;;;;;0.95;0.80;;;32.10;95.30;;;;;;4157483;28;20104;-44
2022/06/17 11:48:43;;;;;;;1.98;0.82;;;31.90;95.00;;;;;;4162168;28;20052;-45
2022/06/17 11:51:12;;;;;;;1.38;1.10;;;31.70;95.40;;;;;;4161972;28;20048;-45
2022/06/17 11:53:46;;;;;;;3.10;0.90;;;32.00;95.30;;;;;;4146284;28;20080;-46
2022/06/17 11:56:08;;;;;;;1.80;0.80;;;32.10;94.80;;;;;;4157973;28;20539;-46
2022/06/17 11:58:55;;;;;;;4.32;0.80;;;32.50;96.20;;;;;;4153978;28;20096;-45
2022/06/17 12:01:16;;;;;;;0.90;0.77;;;33.00;95.20;;;;;;4161995;28;20408;-45
2022/06/17 12:03:43;;;;;;;1.98;0.82;;;32.60;94.40;;;;;;4160744;28;20527;-45
2022/06/17 12:06:29;;;;;;;1.27;0.85;;;32.90;95.70;;;;;;4145931;28;20137;-46
2022/06/17 12:09:04;;;;;;;3.47;1.15;;;33.10;95.00;;;;;;4161180;28;20147;-45
2022/06/17 12:12:02;;;;;;;3.28;0.80;;;33.00;94.40;;;;;;4161502;28;20049;-46
2022/06/17 12:14:34;;;;;;;3.55;0.80;;;32.50;93.90;;;;;;4161993;28;20104;-45
2022/06/17 12:17:01;;;;;;;0.80;0.80;;;32.40;94.20;;;;;;4161270;28;20072;-46
2022/06/17 12:19:42;;;;;;;2.65;0.82;;;32.20;94.60;;;;;;4161406;28;20732;-46
2022/06/17 12:22:07;;;;;;;1.23;0.70;;;31.90;93.70;;;;;;4161579;28;20127;-47
2022/06/17 12:24:28;;;;;;;0.70;0.70;;;31.90;94.40;;;;;;4161593;28;20134;-47
2022/06/17 12:27:05;;;;;;;2.85;1.33;;;32.00;94.50;;;;;;4162015;28;20180;-48
2022/06/17 12:29:35;;;;;;;1.60;0.88;;;31.50;94.80;;;;;;4161611;28;20121;-48
2022/06/17 12:32:25;;;;;;;2.00;0.70;;;31.40;94.20;;;;;;4145355;28;20060;-46
2022/06/17 12:35:02;;;;;;;2.60;0.80;;;31.40;95.10;;;;;;4159340;28;20585;-47
2022/06/17 12:37:54;;;;;;;1.42;0.77;;;31.60;96.30;;;;;;4161467;28;20130;-46
2022/06/17 12:40:33;;;;;;;2.45;0.90;;;31.90;95.30;;;;;;4159721;28;20571;-51
2022/06/17 12:42:57;;;;;;;2.15;0.90;;;32.10;95.20;;;;;;4159489;28;20555;-53
2022/06/17 12:45:27;;;;;;;0.70;0.70;;;32.40;95.20;;;;;;4159875;28;20400;-52
2022/06/17 12:47:59;;;;;;;1.80;1.38;;;32.70;94.70;;;;;;4144849;28;20133;-52
2022/06/17 12:53:26;;;;;;;0.80;0.80;;;33.00;95.10;;;;;;4161157;28;20051;-53
2022/06/17 12:55:56;;;;;;;1.20;0.77;;;32.50;94.20;;;;;;4161259;28;20049;-51
2022/06/17 12:58:54;;;;;;;4.57;0.80;;;32.00;94.30;;;;;;4161019;28;20080;-52